sensor_id;sensor_type;location;lat;lon;timestamp;P1;durP1;ratioP1;P2;durP2;ratioP2
5010;SDS011;2524;54.364;10.072;2022-11-20T00:00:23;2.00;;;2.00;;
5010;SDS011;2524;54.364;10.072;2022-11-20T00:02:49;1.87;;;1.87;;
5010;SDS011;2524;54.364;10.072;2022-11-20T00:05:15;2.03;;;2.03;;
5010;SDS011;2524;54.364;10.072;2022-11-20T00:07:40;1.90;;;1.90;;
5010;SDS011;2524;54.364;10.072;2022-11-20T00:10:06;2.40;;;2.30;;
5010;SDS011;2524;54.364;10.072;2022-11-20T00:12:32;2.10;;;2.10;;
5010;SDS011;2524;54.364;10.072;2022-11-20T00:14:57;1.70;;;1.70;;
5010;SDS011;2524;54.364;10.072;2022-11-20T00:17:23;2.20;;;2.10;;
5010;SDS011;2524;54.364;10.072;2022-11-20T00:19:49;2.30;;;2.20;;
5010;SDS011;2524;54.364;10.072;2022-11-20T00:22:14;2.37;;;2.37;;
5010;SDS011;2524;54.364;10.072;2022-11-20T00:24:40;2.17;;;2.17;;
5010;SDS011;2524;54.364;10.072;2022-11-20T00:27:05;2.37;;;2.27;;
5010;SDS011;2524;54.364;10.072;2022-11-20T00:29:31;2.70;;;2.60;;
5010;SDS011;2524;54.364;10.072;2022-11-20T00:31:57;1.97;;;1.93;;
5010;SDS011;2524;54.364;10.072;2022-11-20T00:34:22;2.00;;;2.00;;
5010;SDS011;2524;54.364;10.072;2022-11-20T00:36:48;2.13;;;2.10;;
5010;SDS011;2524;54.364;10.072;2022-11-20T00:39:13;1.93;;;1.93;;
5010;SDS011;2524;54.364;10.072;2022-11-20T00:41:39;2.07;;;2.07;;
5010;SDS011;2524;54.364;10.072;2022-11-20T00:44:04;2.40;;;2.20;;
5010;SDS011;2524;54.364;10.072;2022-11-20T00:46:30;2.30;;;2.20;;
5010;SDS011;2524;54.364;10.072;2022-11-20T00:48:56;2.83;;;2.57;;
5010;SDS011;2524;54.364;10.072;2022-11-20T00:51:23;2.77;;;2.67;;
5010;SDS011;2524;54.364;10.072;2022-11-20T00:53:50;2.47;;;2.37;;
5010;SDS011;2524;54.364;10.072;2022-11-20T00:56:17;2.60;;;2.50;;
5010;SDS011;2524;54.364;10.072;2022-11-20T00:58:44;2.17;;;2.17;;
5010;SDS011;2524;54.364;10.072;2022-11-20T01:01:16;1.87;;;1.87;;
5010;SDS011;2524;54.364;10.072;2022-11-20T01:03:47;2.20;;;2.20;;
5010;SDS011;2524;54.364;10.072;2022-11-20T01:08:47;2.30;;;2.20;;
5010;SDS011;2524;54.364;10.072;2022-11-20T01:11:15;2.40;;;2.37;;
5010;SDS011;2524;54.364;10.072;2022-11-20T01:13:45;2.27;;;2.10;;
5010;SDS011;2524;54.364;10.072;2022-11-20T01:16:14;2.43;;;2.43;;
5010;SDS011;2524;54.364;10.072;2022-11-20T01:18:43;2.10;;;2.00;;
5010;SDS011;2524;54.364;10.072;2022-11-20T01:21:11;2.30;;;2.13;;
5010;SDS011;2524;54.364;10.072;2022-11-20T01:23:41;2.03;;;2.00;;
5010;SDS011;2524;54.364;10.072;2022-11-20T01:26:08;2.20;;;2.20;;
5010;SDS011;2524;54.364;10.072;2022-11-20T01:28:36;1.90;;;1.90;;
5010;SDS011;2524;54.364;10.072;2022-11-20T01:31:02;2.50;;;2.40;;
5010;SDS011;2524;54.364;10.072;2022-11-20T01:33:37;1.83;;;1.83;;
5010;SDS011;2524;54.364;10.072;2022-11-20T01:36:03;2.40;;;2.30;;
5010;SDS011;2524;54.364;10.072;2022-11-20T01:38:30;1.90;;;1.90;;
5010;SDS011;2524;54.364;10.072;2022-11-20T01:40:55;2.40;;;2.20;;
5010;SDS011;2524;54.364;10.072;2022-11-20T01:43:22;1.70;;;1.70;;
5010;SDS011;2524;54.364;10.072;2022-11-20T01:51:29;1.77;;;1.77;;
5010;SDS011;2524;54.364;10.072;2022-11-20T01:54:01;1.97;;;1.97;;
5010;SDS011;2524;54.364;10.072;2022-11-20T01:56:30;1.50;;;1.50;;
5010;SDS011;2524;54.364;10.072;2022-11-20T01:59:01;2.00;;;2.00;;
5010;SDS011;2524;54.364;10.072;2022-11-20T02:01:28;1.90;;;1.90;;
5010;SDS011;2524;54.364;10.072;2022-11-20T02:03:54;1.63;;;1.63;;
5010;SDS011;2524;54.364;10.072;2022-11-20T02:09:18;1.90;;;1.90;;
5010;SDS011;2524;54.364;10.072;2022-11-20T02:11:43;1.70;;;1.60;;
5010;SDS011;2524;54.364;10.072;2022-11-20T02:14:09;1.60;;;1.60;;
5010;SDS011;2524;54.364;10.072;2022-11-20T02:16:36;2.00;;;1.97;;
5010;SDS011;2524;54.364;10.072;2022-11-20T02:19:06;2.13;;;2.03;;
5010;SDS011;2524;54.364;10.072;2022-11-20T02:21:40;1.70;;;1.70;;
5010;SDS011;2524;54.364;10.072;2022-11-20T02:24:14;1.77;;;1.77;;
5010;SDS011;2524;54.364;10.072;2022-11-20T02:29:27;2.23;;;2.13;;
5010;SDS011;2524;54.364;10.072;2022-11-20T02:31:57;2.07;;;2.07;;
5010;SDS011;2524;54.364;10.072;2022-11-20T02:34:25;2.00;;;2.00;;
5010;SDS011;2524;54.364;10.072;2022-11-20T02:36:50;1.80;;;1.80;;
5010;SDS011;2524;54.364;10.072;2022-11-20T02:39:17;2.10;;;2.10;;
5010;SDS011;2524;54.364;10.072;2022-11-20T02:41:45;1.83;;;1.83;;
5010;SDS011;2524;54.364;10.072;2022-11-20T02:44:11;2.93;;;2.60;;
5010;SDS011;2524;54.364;10.072;2022-11-20T02:46:37;2.03;;;2.03;;
5010;SDS011;2524;54.364;10.072;2022-11-20T02:49:03;2.10;;;2.07;;
5010;SDS011;2524;54.364;10.072;2022-11-20T02:51:30;2.33;;;2.23;;
5010;SDS011;2524;54.364;10.072;2022-11-20T02:53:55;2.10;;;2.00;;
5010;SDS011;2524;54.364;10.072;2022-11-20T02:56:21;2.30;;;2.20;;
5010;SDS011;2524;54.364;10.072;2022-11-20T02:58:47;2.20;;;2.10;;
5010;SDS011;2524;54.364;10.072;2022-11-20T03:01:13;2.17;;;2.07;;
5010;SDS011;2524;54.364;10.072;2022-11-20T03:03:39;1.87;;;1.80;;
5010;SDS011;2524;54.364;10.072;2022-11-20T03:06:04;2.13;;;2.07;;
5010;SDS011;2524;54.364;10.072;2022-11-20T03:08:30;1.93;;;1.93;;
5010;SDS011;2524;54.364;10.072;2022-11-20T03:10:56;1.53;;;1.53;;
5010;SDS011;2524;54.364;10.072;2022-11-20T03:13:21;2.30;;;2.20;;
5010;SDS011;2524;54.364;10.072;2022-11-20T03:15:47;2.10;;;2.10;;
5010;SDS011;2524;54.364;10.072;2022-11-20T03:18:13;2.43;;;2.33;;
5010;SDS011;2524;54.364;10.072;2022-11-20T03:20:39;1.90;;;1.90;;
5010;SDS011;2524;54.364;10.072;2022-11-20T03:23:05;2.47;;;2.27;;
5010;SDS011;2524;54.364;10.072;2022-11-20T03:25:30;2.30;;;2.20;;
5010;SDS011;2524;54.364;10.072;2022-11-20T03:27:56;1.83;;;1.83;;
5010;SDS011;2524;54.364;10.072;2022-11-20T03:30:22;2.00;;;2.00;;
5010;SDS011;2524;54.364;10.072;2022-11-20T03:32:47;1.97;;;1.97;;
5010;SDS011;2524;54.364;10.072;2022-11-20T03:35:13;2.63;;;2.53;;
5010;SDS011;2524;54.364;10.072;2022-11-20T03:37:38;2.70;;;2.60;;
5010;SDS011;2524;54.364;10.072;2022-11-20T03:40:04;2.40;;;2.30;;
5010;SDS011;2524;54.364;10.072;2022-11-20T03:42:30;1.90;;;1.90;;
5010;SDS011;2524;54.364;10.072;2022-11-20T03:45:11;1.73;;;1.70;;
5010;SDS011;2524;54.364;10.072;2022-11-20T03:47:40;1.60;;;1.60;;
5010;SDS011;2524;54.364;10.072;2022-11-20T03:50:05;1.47;;;1.47;;
5010;SDS011;2524;54.364;10.072;2022-11-20T03:52:32;1.50;;;1.50;;
5010;SDS011;2524;54.364;10.072;2022-11-20T03:54:57;1.00;;;1.00;;
5010;SDS011;2524;54.364;10.072;2022-11-20T03:57:23;1.10;;;1.10;;
5010;SDS011;2524;54.364;10.072;2022-11-20T03:59:48;0.90;;;0.90;;
5010;SDS011;2524;54.364;10.072;2022-11-20T04:02:14;1.00;;;1.00;;
5010;SDS011;2524;54.364;10.072;2022-11-20T04:04:39;0.73;;;0.73;;
5010;SDS011;2524;54.364;10.072;2022-11-20T04:07:05;1.13;;;1.13;;
5010;SDS011;2524;54.364;10.072;2022-11-20T04:09:31;1.10;;;1.10;;
5010;SDS011;2524;54.364;10.072;2022-11-20T04:11:56;1.00;;;1.00;;
5010;SDS011;2524;54.364;10.072;2022-11-20T04:14:22;0.90;;;0.90;;
5010;SDS011;2524;54.364;10.072;2022-11-20T04:16:47;0.80;;;0.80;;
5010;SDS011;2524;54.364;10.072;2022-11-20T04:19:14;0.60;;;0.60;;
5010;SDS011;2524;54.364;10.072;2022-11-20T04:21:41;0.70;;;0.70;;
5010;SDS011;2524;54.364;10.072;2022-11-20T04:24:07;1.00;;;1.00;;
5010;SDS011;2524;54.364;10.072;2022-11-20T04:26:33;0.80;;;0.80;;
5010;SDS011;2524;54.364;10.072;2022-11-20T04:28:59;0.70;;;0.70;;
5010;SDS011;2524;54.364;10.072;2022-11-20T04:31:30;0.70;;;0.70;;
5010;SDS011;2524;54.364;10.072;2022-11-20T04:34:01;0.70;;;0.70;;
5010;SDS011;2524;54.364;10.072;2022-11-20T04:36:28;0.60;;;0.60;;
5010;SDS011;2524;54.364;10.072;2022-11-20T04:38:55;0.97;;;0.87;;
5010;SDS011;2524;54.364;10.072;2022-11-20T04:41:26;1.00;;;1.00;;
5010;SDS011;2524;54.364;10.072;2022-11-20T04:43:54;1.50;;;1.50;;
5010;SDS011;2524;54.364;10.072;2022-11-20T04:46:24;1.70;;;1.70;;
5010;SDS011;2524;54.364;10.072;2022-11-20T04:48:51;1.83;;;1.83;;
5010;SDS011;2524;54.364;10.072;2022-11-20T04:51:17;1.40;;;1.40;;
5010;SDS011;2524;54.364;10.072;2022-11-20T04:53:42;1.33;;;1.33;;
5010;SDS011;2524;54.364;10.072;2022-11-20T04:56:10;1.10;;;1.10;;
5010;SDS011;2524;54.364;10.072;2022-11-20T04:58:37;1.40;;;1.40;;
5010;SDS011;2524;54.364;10.072;2022-11-20T05:01:03;1.40;;;1.40;;
5010;SDS011;2524;54.364;10.072;2022-11-20T05:03:31;1.50;;;1.50;;
5010;SDS011;2524;54.364;10.072;2022-11-20T05:05:59;1.47;;;1.47;;
5010;SDS011;2524;54.364;10.072;2022-11-20T05:08:26;1.60;;;1.60;;
5010;SDS011;2524;54.364;10.072;2022-11-20T05:10:52;1.50;;;1.50;;
5010;SDS011;2524;54.364;10.072;2022-11-20T05:13:17;1.57;;;1.57;;
5010;SDS011;2524;54.364;10.072;2022-11-20T05:15:43;2.07;;;1.97;;
5010;SDS011;2524;54.364;10.072;2022-11-20T05:18:09;1.47;;;1.47;;
5010;SDS011;2524;54.364;10.072;2022-11-20T05:20:34;1.70;;;1.70;;
5010;SDS011;2524;54.364;10.072;2022-11-20T05:23:01;1.60;;;1.60;;
5010;SDS011;2524;54.364;10.072;2022-11-20T05:25:26;1.60;;;1.60;;
5010;SDS011;2524;54.364;10.072;2022-11-20T05:27:52;1.67;;;1.67;;
5010;SDS011;2524;54.364;10.072;2022-11-20T05:30:18;2.10;;;2.00;;
5010;SDS011;2524;54.364;10.072;2022-11-20T05:32:44;1.73;;;1.73;;
5010;SDS011;2524;54.364;10.072;2022-11-20T05:35:09;1.70;;;1.70;;
5010;SDS011;2524;54.364;10.072;2022-11-20T05:37:35;1.63;;;1.63;;
5010;SDS011;2524;54.364;10.072;2022-11-20T05:40:01;1.67;;;1.67;;
5010;SDS011;2524;54.364;10.072;2022-11-20T05:42:29;1.30;;;1.30;;
5010;SDS011;2524;54.364;10.072;2022-11-20T05:44:58;1.37;;;1.37;;
5010;SDS011;2524;54.364;10.072;2022-11-20T05:47:25;2.80;;;2.70;;
5010;SDS011;2524;54.364;10.072;2022-11-20T05:49:51;2.10;;;2.10;;
5010;SDS011;2524;54.364;10.072;2022-11-20T05:52:17;2.60;;;2.50;;
5010;SDS011;2524;54.364;10.072;2022-11-20T05:54:42;2.00;;;2.00;;
5010;SDS011;2524;54.364;10.072;2022-11-20T05:57:08;1.50;;;1.50;;
5010;SDS011;2524;54.364;10.072;2022-11-20T05:59:34;1.87;;;1.77;;
5010;SDS011;2524;54.364;10.072;2022-11-20T06:01:59;1.37;;;1.37;;
5010;SDS011;2524;54.364;10.072;2022-11-20T06:04:25;2.00;;;1.90;;
5010;SDS011;2524;54.364;10.072;2022-11-20T06:06:50;1.50;;;1.50;;
5010;SDS011;2524;54.364;10.072;2022-11-20T06:09:16;1.73;;;1.70;;
5010;SDS011;2524;54.364;10.072;2022-11-20T06:11:41;2.00;;;2.00;;
5010;SDS011;2524;54.364;10.072;2022-11-20T06:14:07;1.40;;;1.40;;
5010;SDS011;2524;54.364;10.072;2022-11-20T06:16:33;1.60;;;1.53;;
5010;SDS011;2524;54.364;10.072;2022-11-20T06:18:58;1.40;;;1.40;;
5010;SDS011;2524;54.364;10.072;2022-11-20T06:21:24;1.80;;;1.80;;
5010;SDS011;2524;54.364;10.072;2022-11-20T06:23:50;1.90;;;1.80;;
5010;SDS011;2524;54.364;10.072;2022-11-20T06:26:24;1.27;;;1.27;;
5010;SDS011;2524;54.364;10.072;2022-11-20T06:28:51;2.50;;;2.50;;
5010;SDS011;2524;54.364;10.072;2022-11-20T06:31:19;2.43;;;2.33;;
5010;SDS011;2524;54.364;10.072;2022-11-20T06:33:46;2.43;;;2.43;;
5010;SDS011;2524;54.364;10.072;2022-11-20T06:36:14;2.17;;;2.17;;
5010;SDS011;2524;54.364;10.072;2022-11-20T06:38:41;1.93;;;1.93;;
5010;SDS011;2524;54.364;10.072;2022-11-20T06:41:10;1.70;;;1.70;;
5010;SDS011;2524;54.364;10.072;2022-11-20T06:43:41;2.00;;;2.00;;
5010;SDS011;2524;54.364;10.072;2022-11-20T06:46:08;1.97;;;1.97;;
5010;SDS011;2524;54.364;10.072;2022-11-20T06:48:35;1.90;;;1.90;;
5010;SDS011;2524;54.364;10.072;2022-11-20T06:51:04;1.57;;;1.57;;
5010;SDS011;2524;54.364;10.072;2022-11-20T06:53:31;1.83;;;1.83;;
5010;SDS011;2524;54.364;10.072;2022-11-20T06:55:57;2.33;;;2.33;;
5010;SDS011;2524;54.364;10.072;2022-11-20T06:58:23;2.00;;;2.00;;
5010;SDS011;2524;54.364;10.072;2022-11-20T07:00:52;1.60;;;1.60;;
5010;SDS011;2524;54.364;10.072;2022-11-20T07:03:17;1.50;;;1.50;;
5010;SDS011;2524;54.364;10.072;2022-11-20T07:05:43;1.67;;;1.67;;
5010;SDS011;2524;54.364;10.072;2022-11-20T07:08:10;1.90;;;1.80;;
5010;SDS011;2524;54.364;10.072;2022-11-20T07:10:36;1.57;;;1.57;;
5010;SDS011;2524;54.364;10.072;2022-11-20T07:13:01;0.90;;;0.90;;
5010;SDS011;2524;54.364;10.072;2022-11-20T07:15:27;0.80;;;0.80;;
5010;SDS011;2524;54.364;10.072;2022-11-20T07:17:53;0.90;;;0.90;;
5010;SDS011;2524;54.364;10.072;2022-11-20T07:20:18;0.70;;;0.70;;
5010;SDS011;2524;54.364;10.072;2022-11-20T07:22:44;0.90;;;0.90;;
5010;SDS011;2524;54.364;10.072;2022-11-20T07:25:10;0.80;;;0.80;;
5010;SDS011;2524;54.364;10.072;2022-11-20T07:27:36;0.70;;;0.70;;
5010;SDS011;2524;54.364;10.072;2022-11-20T07:30:02;0.70;;;0.70;;
5010;SDS011;2524;54.364;10.072;2022-11-20T07:32:28;1.00;;;1.00;;
5010;SDS011;2524;54.364;10.072;2022-11-20T07:34:54;1.57;;;0.67;;
5010;SDS011;2524;54.364;10.072;2022-11-20T07:37:20;1.10;;;1.10;;
5010;SDS011;2524;54.364;10.072;2022-11-20T07:39:45;1.27;;;1.17;;
5010;SDS011;2524;54.364;10.072;2022-11-20T07:42:11;0.83;;;0.83;;
5010;SDS011;2524;54.364;10.072;2022-11-20T07:44:37;1.83;;;1.83;;
5010;SDS011;2524;54.364;10.072;2022-11-20T07:47:03;2.10;;;2.10;;
5010;SDS011;2524;54.364;10.072;2022-11-20T07:49:28;2.00;;;1.77;;
5010;SDS011;2524;54.364;10.072;2022-11-20T07:51:54;1.70;;;1.60;;
5010;SDS011;2524;54.364;10.072;2022-11-20T07:54:20;1.17;;;1.17;;
5010;SDS011;2524;54.364;10.072;2022-11-20T07:56:46;1.27;;;1.27;;
5010;SDS011;2524;54.364;10.072;2022-11-20T07:59:13;1.20;;;1.20;;
5010;SDS011;2524;54.364;10.072;2022-11-20T08:01:39;1.30;;;1.30;;
5010;SDS011;2524;54.364;10.072;2022-11-20T08:04:05;2.30;;;1.30;;
5010;SDS011;2524;54.364;10.072;2022-11-20T08:06:30;0.90;;;0.90;;
5010;SDS011;2524;54.364;10.072;2022-11-20T08:08:56;1.20;;;1.20;;
5010;SDS011;2524;54.364;10.072;2022-11-20T08:11:22;0.70;;;0.70;;
5010;SDS011;2524;54.364;10.072;2022-11-20T08:14:06;0.70;;;0.70;;
5010;SDS011;2524;54.364;10.072;2022-11-20T08:16:38;1.00;;;0.90;;
5010;SDS011;2524;54.364;10.072;2022-11-20T08:19:04;0.60;;;0.60;;
5010;SDS011;2524;54.364;10.072;2022-11-20T08:21:30;0.60;;;0.60;;
5010;SDS011;2524;54.364;10.072;2022-11-20T08:23:56;0.60;;;0.60;;
5010;SDS011;2524;54.364;10.072;2022-11-20T08:26:22;0.50;;;0.50;;
5010;SDS011;2524;54.364;10.072;2022-11-20T08:28:48;0.60;;;0.60;;
5010;SDS011;2524;54.364;10.072;2022-11-20T08:31:14;0.93;;;0.93;;
5010;SDS011;2524;54.364;10.072;2022-11-20T08:33:39;0.93;;;0.77;;
5010;SDS011;2524;54.364;10.072;2022-11-20T08:36:05;1.00;;;1.00;;
5010;SDS011;2524;54.364;10.072;2022-11-20T08:38:31;1.20;;;1.20;;
5010;SDS011;2524;54.364;10.072;2022-11-20T08:41:01;1.00;;;1.00;;
5010;SDS011;2524;54.364;10.072;2022-11-20T08:43:46;0.97;;;0.97;;
5010;SDS011;2524;54.364;10.072;2022-11-20T08:46:12;0.87;;;0.87;;
5010;SDS011;2524;54.364;10.072;2022-11-20T08:48:38;1.10;;;1.10;;
5010;SDS011;2524;54.364;10.072;2022-11-20T08:51:03;1.20;;;1.20;;
5010;SDS011;2524;54.364;10.072;2022-11-20T08:53:29;1.00;;;1.00;;
5010;SDS011;2524;54.364;10.072;2022-11-20T08:55:56;1.60;;;1.50;;
5010;SDS011;2524;54.364;10.072;2022-11-20T08:58:21;1.27;;;1.27;;
5010;SDS011;2524;54.364;10.072;2022-11-20T09:00:47;1.30;;;1.30;;
5010;SDS011;2524;54.364;10.072;2022-11-20T09:03:13;1.17;;;1.17;;
5010;SDS011;2524;54.364;10.072;2022-11-20T09:05:38;1.20;;;1.20;;
5010;SDS011;2524;54.364;10.072;2022-11-20T09:08:04;1.20;;;1.20;;
5010;SDS011;2524;54.364;10.072;2022-11-20T09:10:30;1.10;;;1.10;;
5010;SDS011;2524;54.364;10.072;2022-11-20T09:12:56;1.50;;;1.50;;
5010;SDS011;2524;54.364;10.072;2022-11-20T09:15:21;1.03;;;1.03;;
5010;SDS011;2524;54.364;10.072;2022-11-20T09:17:54;0.90;;;0.90;;
5010;SDS011;2524;54.364;10.072;2022-11-20T09:20:25;1.10;;;1.10;;
5010;SDS011;2524;54.364;10.072;2022-11-20T09:22:51;1.17;;;1.17;;
5010;SDS011;2524;54.364;10.072;2022-11-20T09:25:17;0.97;;;0.97;;
5010;SDS011;2524;54.364;10.072;2022-11-20T09:27:43;1.20;;;1.10;;
5010;SDS011;2524;54.364;10.072;2022-11-20T09:30:10;1.77;;;1.77;;
5010;SDS011;2524;54.364;10.072;2022-11-20T09:32:41;1.53;;;1.53;;
5010;SDS011;2524;54.364;10.072;2022-11-20T09:35:07;1.40;;;1.40;;
5010;SDS011;2524;54.364;10.072;2022-11-20T09:37:33;1.70;;;1.70;;
5010;SDS011;2524;54.364;10.072;2022-11-20T09:39:59;1.60;;;1.60;;
5010;SDS011;2524;54.364;10.072;2022-11-20T09:42:45;1.37;;;1.37;;
5010;SDS011;2524;54.364;10.072;2022-11-20T09:45:42;1.70;;;1.70;;
5010;SDS011;2524;54.364;10.072;2022-11-20T09:50:53;1.90;;;1.80;;
5010;SDS011;2524;54.364;10.072;2022-11-20T09:56:26;1.77;;;1.77;;
5010;SDS011;2524;54.364;10.072;2022-11-20T09:58:54;1.77;;;1.77;;
5010;SDS011;2524;54.364;10.072;2022-11-20T10:01:23;1.87;;;1.87;;
5010;SDS011;2524;54.364;10.072;2022-11-20T10:03:56;1.77;;;1.77;;
5010;SDS011;2524;54.364;10.072;2022-11-20T10:11:42;1.80;;;1.80;;
5010;SDS011;2524;54.364;10.072;2022-11-20T10:14:22;1.73;;;1.73;;
5010;SDS011;2524;54.364;10.072;2022-11-20T10:28:52;1.60;;;1.60;;
5010;SDS011;2524;54.364;10.072;2022-11-20T10:31:35;1.20;;;1.20;;
5010;SDS011;2524;54.364;10.072;2022-11-20T10:34:06;1.20;;;1.20;;
5010;SDS011;2524;54.364;10.072;2022-11-20T10:39:40;1.50;;;1.50;;
5010;SDS011;2524;54.364;10.072;2022-11-20T10:42:16;1.53;;;1.53;;
5010;SDS011;2524;54.364;10.072;2022-11-20T10:44:53;2.00;;;2.00;;
5010;SDS011;2524;54.364;10.072;2022-11-20T10:47:43;1.53;;;1.53;;
5010;SDS011;2524;54.364;10.072;2022-11-20T10:50:09;1.80;;;1.70;;
5010;SDS011;2524;54.364;10.072;2022-11-20T10:52:56;1.40;;;1.40;;
5010;SDS011;2524;54.364;10.072;2022-11-20T10:58:07;1.33;;;1.33;;
5010;SDS011;2524;54.364;10.072;2022-11-20T11:00:38;1.37;;;1.37;;
5010;SDS011;2524;54.364;10.072;2022-11-20T11:03:07;1.63;;;1.63;;
5010;SDS011;2524;54.364;10.072;2022-11-20T11:08:39;1.43;;;1.43;;
5010;SDS011;2524;54.364;10.072;2022-11-20T11:11:27;1.80;;;1.80;;
5010;SDS011;2524;54.364;10.072;2022-11-20T11:14:03;1.20;;;1.20;;
5010;SDS011;2524;54.364;10.072;2022-11-20T11:16:32;1.30;;;1.30;;
5010;SDS011;2524;54.364;10.072;2022-11-20T11:19:11;1.90;;;1.90;;
5010;SDS011;2524;54.364;10.072;2022-11-20T11:21:38;1.33;;;1.33;;
5010;SDS011;2524;54.364;10.072;2022-11-20T11:24:15;1.50;;;1.50;;
5010;SDS011;2524;54.364;10.072;2022-11-20T11:27:04;2.00;;;2.00;;
5010;SDS011;2524;54.364;10.072;2022-11-20T11:29:37;2.13;;;2.13;;
5010;SDS011;2524;54.364;10.072;2022-11-20T11:32:07;2.00;;;2.00;;
5010;SDS011;2524;54.364;10.072;2022-11-20T11:34:43;2.30;;;2.30;;
5010;SDS011;2524;54.364;10.072;2022-11-20T11:37:13;2.50;;;2.50;;
5010;SDS011;2524;54.364;10.072;2022-11-20T11:39:46;2.47;;;2.37;;
5010;SDS011;2524;54.364;10.072;2022-11-20T11:42:17;1.97;;;1.97;;
5010;SDS011;2524;54.364;10.072;2022-11-20T11:44:44;2.00;;;1.90;;
5010;SDS011;2524;54.364;10.072;2022-11-20T11:47:30;3.20;;;3.00;;
5010;SDS011;2524;54.364;10.072;2022-11-20T11:52:36;4.67;;;4.23;;
5010;SDS011;2524;54.364;10.072;2022-11-20T11:55:31;4.30;;;4.00;;
5010;SDS011;2524;54.364;10.072;2022-11-20T12:03:50;3.03;;;2.90;;
5010;SDS011;2524;54.364;10.072;2022-11-20T12:06:27;2.40;;;2.30;;
5010;SDS011;2524;54.364;10.072;2022-11-20T12:08:59;2.67;;;2.57;;
5010;SDS011;2524;54.364;10.072;2022-11-20T12:14:17;2.43;;;2.40;;
5010;SDS011;2524;54.364;10.072;2022-11-20T12:16:54;2.70;;;2.50;;
5010;SDS011;2524;54.364;10.072;2022-11-20T12:19:22;2.07;;;1.97;;
5010;SDS011;2524;54.364;10.072;2022-11-20T12:21:52;2.10;;;2.03;;
5010;SDS011;2524;54.364;10.072;2022-11-20T12:24:34;2.30;;;2.20;;
5010;SDS011;2524;54.364;10.072;2022-11-20T12:30:01;9.50;;;6.13;;
5010;SDS011;2524;54.364;10.072;2022-11-20T12:38:47;1.90;;;1.80;;
5010;SDS011;2524;54.364;10.072;2022-11-20T12:44:55;1.47;;;1.47;;
5010;SDS011;2524;54.364;10.072;2022-11-20T12:50:56;1.30;;;1.30;;
5010;SDS011;2524;54.364;10.072;2022-11-20T13:07:57;2.37;;;2.27;;
5010;SDS011;2524;54.364;10.072;2022-11-20T13:13:04;1.73;;;1.73;;
5010;SDS011;2524;54.364;10.072;2022-11-20T13:15:59;1.90;;;1.90;;
5010;SDS011;2524;54.364;10.072;2022-11-20T13:18:40;2.90;;;1.77;;
5010;SDS011;2524;54.364;10.072;2022-11-20T13:24:06;2.20;;;2.10;;
5010;SDS011;2524;54.364;10.072;2022-11-20T13:26:45;3.03;;;2.83;;
5010;SDS011;2524;54.364;10.072;2022-11-20T13:29:12;3.30;;;3.10;;
5010;SDS011;2524;54.364;10.072;2022-11-20T13:31:43;2.90;;;2.80;;
5010;SDS011;2524;54.364;10.072;2022-11-20T13:34:23;2.73;;;2.63;;
5010;SDS011;2524;54.364;10.072;2022-11-20T13:36:52;2.20;;;2.10;;
5010;SDS011;2524;54.364;10.072;2022-11-20T13:41:58;2.10;;;2.00;;
5010;SDS011;2524;54.364;10.072;2022-11-20T13:47:02;1.60;;;1.53;;
5010;SDS011;2524;54.364;10.072;2022-11-20T13:49:38;1.67;;;1.57;;
5010;SDS011;2524;54.364;10.072;2022-11-20T13:55:16;1.40;;;1.33;;
5010;SDS011;2524;54.364;10.072;2022-11-20T14:00:30;1.80;;;1.80;;
5010;SDS011;2524;54.364;10.072;2022-11-20T14:05:31;1.70;;;1.70;;
5010;SDS011;2524;54.364;10.072;2022-11-20T14:08:04;1.60;;;1.60;;
5010;SDS011;2524;54.364;10.072;2022-11-20T14:10:34;1.80;;;1.80;;
5010;SDS011;2524;54.364;10.072;2022-11-20T14:13:09;3.13;;;2.93;;
5010;SDS011;2524;54.364;10.072;2022-11-20T14:15:40;2.20;;;2.20;;
5010;SDS011;2524;54.364;10.072;2022-11-20T14:18:14;2.13;;;2.03;;
5010;SDS011;2524;54.364;10.072;2022-11-20T14:20:45;2.00;;;1.90;;
5010;SDS011;2524;54.364;10.072;2022-11-20T14:23:11;1.90;;;1.90;;
5010;SDS011;2524;54.364;10.072;2022-11-20T14:25:37;2.00;;;1.90;;
5010;SDS011;2524;54.364;10.072;2022-11-20T14:28:10;1.70;;;1.60;;
5010;SDS011;2524;54.364;10.072;2022-11-20T14:30:44;1.67;;;1.67;;
5010;SDS011;2524;54.364;10.072;2022-11-20T14:33:12;1.60;;;1.60;;
5010;SDS011;2524;54.364;10.072;2022-11-20T14:35:47;1.50;;;1.50;;
5010;SDS011;2524;54.364;10.072;2022-11-20T14:38:15;1.20;;;1.20;;
5010;SDS011;2524;54.364;10.072;2022-11-20T14:40:43;0.97;;;0.97;;
5010;SDS011;2524;54.364;10.072;2022-11-20T14:43:17;1.30;;;1.30;;
5010;SDS011;2524;54.364;10.072;2022-11-20T14:45:45;1.20;;;1.20;;
5010;SDS011;2524;54.364;10.072;2022-11-20T14:48:22;1.33;;;1.33;;
5010;SDS011;2524;54.364;10.072;2022-11-20T14:50:53;1.60;;;1.50;;
5010;SDS011;2524;54.364;10.072;2022-11-20T14:53:22;1.70;;;1.60;;
5010;SDS011;2524;54.364;10.072;2022-11-20T14:55:54;1.60;;;1.60;;
5010;SDS011;2524;54.364;10.072;2022-11-20T14:58:22;1.33;;;1.33;;
5010;SDS011;2524;54.364;10.072;2022-11-20T15:03:21;1.70;;;1.60;;
5010;SDS011;2524;54.364;10.072;2022-11-20T15:05:48;1.17;;;1.17;;
5010;SDS011;2524;54.364;10.072;2022-11-20T15:08:14;1.20;;;1.20;;
5010;SDS011;2524;54.364;10.072;2022-11-20T15:10:45;1.87;;;1.87;;
5010;SDS011;2524;54.364;10.072;2022-11-20T15:15:58;1.90;;;1.90;;
5010;SDS011;2524;54.364;10.072;2022-11-20T15:18:32;2.37;;;2.27;;
5010;SDS011;2524;54.364;10.072;2022-11-20T15:21:03;3.13;;;2.93;;
5010;SDS011;2524;54.364;10.072;2022-11-20T15:23:35;4.00;;;3.70;;
5010;SDS011;2524;54.364;10.072;2022-11-20T15:26:00;3.70;;;3.50;;
5010;SDS011;2524;54.364;10.072;2022-11-20T15:28:28;3.63;;;3.47;;
5010;SDS011;2524;54.364;10.072;2022-11-20T15:30:56;4.60;;;4.20;;
5010;SDS011;2524;54.364;10.072;2022-11-20T15:33:22;4.60;;;4.20;;
5010;SDS011;2524;54.364;10.072;2022-11-20T15:35:47;3.80;;;3.60;;
5010;SDS011;2524;54.364;10.072;2022-11-20T15:38:13;3.30;;;2.97;;
5010;SDS011;2524;54.364;10.072;2022-11-20T15:40:39;4.63;;;3.60;;
5010;SDS011;2524;54.364;10.072;2022-11-20T15:43:04;4.30;;;3.93;;
5010;SDS011;2524;54.364;10.072;2022-11-20T15:45:45;3.60;;;3.40;;
5010;SDS011;2524;54.364;10.072;2022-11-20T15:48:20;3.00;;;2.90;;
5010;SDS011;2524;54.364;10.072;2022-11-20T15:50:51;4.00;;;3.60;;
5010;SDS011;2524;54.364;10.072;2022-11-20T15:53:18;2.60;;;2.50;;
5010;SDS011;2524;54.364;10.072;2022-11-20T15:55:44;4.60;;;3.63;;
5010;SDS011;2524;54.364;10.072;2022-11-20T15:58:09;4.43;;;3.50;;
5010;SDS011;2524;54.364;10.072;2022-11-20T16:00:35;4.40;;;4.00;;
5010;SDS011;2524;54.364;10.072;2022-11-20T16:03:00;4.83;;;3.90;;
5010;SDS011;2524;54.364;10.072;2022-11-20T16:05:29;3.17;;;3.07;;
5010;SDS011;2524;54.364;10.072;2022-11-20T16:07:55;3.50;;;3.30;;
5010;SDS011;2524;54.364;10.072;2022-11-20T16:10:21;3.30;;;3.10;;
5010;SDS011;2524;54.364;10.072;2022-11-20T16:12:47;2.90;;;2.70;;
5010;SDS011;2524;54.364;10.072;2022-11-20T16:15:31;2.90;;;2.70;;
5010;SDS011;2524;54.364;10.072;2022-11-20T16:18:13;4.00;;;2.70;;
5010;SDS011;2524;54.364;10.072;2022-11-20T16:20:40;2.93;;;2.73;;
5010;SDS011;2524;54.364;10.072;2022-11-20T16:23:06;3.00;;;2.80;;
5010;SDS011;2524;54.364;10.072;2022-11-20T16:25:32;3.67;;;3.40;;
5010;SDS011;2524;54.364;10.072;2022-11-20T16:27:57;5.90;;;4.80;;
5010;SDS011;2524;54.364;10.072;2022-11-20T16:30:23;5.63;;;5.07;;
5010;SDS011;2524;54.364;10.072;2022-11-20T16:32:49;8.50;;;7.17;;
5010;SDS011;2524;54.364;10.072;2022-11-20T16:35:15;12.30;;;8.33;;
5010;SDS011;2524;54.364;10.072;2022-11-20T16:37:40;16.60;;;9.37;;
5010;SDS011;2524;54.364;10.072;2022-11-20T16:40:07;14.73;;;9.40;;
5010;SDS011;2524;54.364;10.072;2022-11-20T16:42:33;15.33;;;9.97;;
5010;SDS011;2524;54.364;10.072;2022-11-20T16:44:59;13.73;;;9.60;;
5010;SDS011;2524;54.364;10.072;2022-11-20T16:47:25;13.70;;;9.53;;
5010;SDS011;2524;54.364;10.072;2022-11-20T16:49:51;10.17;;;8.60;;
5010;SDS011;2524;54.364;10.072;2022-11-20T16:52:16;9.70;;;7.67;;
5010;SDS011;2524;54.364;10.072;2022-11-20T16:54:42;14.60;;;9.90;;
5010;SDS011;2524;54.364;10.072;2022-11-20T16:57:07;21.00;;;13.50;;
5010;SDS011;2524;54.364;10.072;2022-11-20T16:59:33;18.60;;;13.57;;